sensor_id;sensor_type;location;lat;lon;timestamp;pressure;altitude;pressure_sealevel;temperature;humidity
16120;BME280;12670;53.502;10.252;2023-05-29T00:02:48;58407.00;;;-145.15;100.00
16120;BME280;12670;53.502;10.252;2023-05-29T00:05:52;58407.00;;;-145.15;100.00
16120;BME280;12670;53.502;10.252;2023-05-29T00:08:56;58407.00;;;-145.15;100.00
16120;BME280;12670;53.502;10.252;2023-05-29T00:11:59;58407.00;;;-145.15;100.00
16120;BME280;12670;53.502;10.252;2023-05-29T00:15:03;58407.00;;;-145.15;100.00
16120;BME280;12670;53.502;10.252;2023-05-29T00:18:06;58407.00;;;-145.15;100.00
16120;BME280;12670;53.502;10.252;2023-05-29T00:21:08;58407.00;;;-145.15;100.00
16120;BME280;12670;53.502;10.252;2023-05-29T00:24:12;58407.00;;;-145.15;100.00
16120;BME280;12670;53.502;10.252;2023-05-29T00:27:15;58407.00;;;-145.15;100.00
16120;BME280;12670;53.502;10.252;2023-05-29T00:30:18;58407.00;;;-145.15;100.00
16120;BME280;12670;53.502;10.252;2023-05-29T00:33:20;58407.00;;;-145.15;100.00
16120;BME280;12670;53.502;10.252;2023-05-29T00:36:23;58407.00;;;-145.15;100.00
16120;BME280;12670;53.502;10.252;2023-05-29T00:39:28;101912.16;;;14.24;nan
16120;BME280;12670;53.502;10.252;2023-05-29T00:42:31;101921.31;;;14.17;nan
16120;BME280;12670;53.502;10.252;2023-05-29T00:45:33;101925.41;;;13.53;nan
16120;BME280;12670;53.502;10.252;2023-05-29T00:48:37;101935.00;;;13.59;nan
16120;BME280;12670;53.502;10.252;2023-05-29T00:51:41;101935.09;;;13.81;nan
16120;BME280;12670;53.502;10.252;2023-05-29T00:54:46;101949.50;;;14.00;nan
16120;BME280;12670;53.502;10.252;2023-05-29T00:57:49;101958.72;;;13.92;nan
16120;BME280;12670;53.502;10.252;2023-05-29T01:00:52;101961.00;;;14.02;nan
16120;BME280;12670;53.502;10.252;2023-05-29T01:03:55;101961.13;;;13.99;nan
16120;BME280;12670;53.502;10.252;2023-05-29T01:07:00;101966.03;;;13.62;nan
16120;BME280;12670;53.502;10.252;2023-05-29T01:10:06;101963.91;;;13.71;nan
16120;BME280;12670;53.502;10.252;2023-05-29T01:13:22;101967.69;;;13.89;nan
16120;BME280;12670;53.502;10.252;2023-05-29T01:16:31;101962.59;;;13.83;nan
16120;BME280;12670;53.502;10.252;2023-05-29T01:19:51;101974.63;;;13.70;nan
16120;BME280;12670;53.502;10.252;2023-05-29T01:23:07;101969.41;;;13.67;nan
16120;BME280;12670;53.502;10.252;2023-05-29T01:26:21;101982.25;;;13.55;nan
16120;BME280;12670;53.502;10.252;2023-05-29T01:29:29;101976.69;;;13.62;nan
16120;BME280;12670;53.502;10.252;2023-05-29T01:32:34;101973.47;;;13.52;nan
16120;BME280;12670;53.502;10.252;2023-05-29T01:35:37;101963.28;;;13.38;nan
16120;BME280;12670;53.502;10.252;2023-05-29T01:38:40;101967.78;;;13.36;nan
16120;BME280;12670;53.502;10.252;2023-05-29T01:41:43;101968.16;;;13.25;nan
16120;BME280;12670;53.502;10.252;2023-05-29T01:44:48;101961.84;;;13.28;nan
16120;BME280;12670;53.502;10.252;2023-05-29T01:47:51;101968.47;;;13.15;nan
16120;BME280;12670;53.502;10.252;2023-05-29T01:50:56;101968.69;;;13.08;nan
16120;BME280;12670;53.502;10.252;2023-05-29T01:54:00;101973.50;;;12.97;nan
16120;BME280;12670;53.502;10.252;2023-05-29T01:57:04;101966.91;;;13.09;nan
16120;BME280;12670;53.502;10.252;2023-05-29T02:00:09;101975.63;;;13.14;nan
16120;BME280;12670;53.502;10.252;2023-05-29T02:03:13;101973.97;;;13.10;nan
16120;BME280;12670;53.502;10.252;2023-05-29T02:06:16;101967.84;;;13.06;nan
16120;BME280;12670;53.502;10.252;2023-05-29T02:09:20;101974.22;;;13.02;nan
16120;BME280;12670;53.502;10.252;2023-05-29T02:12:24;101974.34;;;12.70;nan
16120;BME280;12670;53.502;10.252;2023-05-29T02:15:28;101977.50;;;12.82;nan
16120;BME280;12670;53.502;10.252;2023-05-29T02:18:30;101982.44;;;12.67;nan
16120;BME280;12670;53.502;10.252;2023-05-29T02:21:33;101979.59;;;12.73;nan
16120;BME280;12670;53.502;10.252;2023-05-29T02:24:36;101981.53;;;12.68;nan
16120;BME280;12670;53.502;10.252;2023-05-29T02:27:39;101976.66;;;12.52;nan
16120;BME280;12670;53.502;10.252;2023-05-29T02:30:43;101983.22;;;12.41;nan
16120;BME280;12670;53.502;10.252;2023-05-29T02:33:46;101980.25;;;12.51;nan
16120;BME280;12670;53.502;10.252;2023-05-29T02:36:49;101980.47;;;12.44;nan
16120;BME280;12670;53.502;10.252;2023-05-29T02:39:53;101982.97;;;12.19;nan
16120;BME280;12670;53.502;10.252;2023-05-29T02:42:56;101978.63;;;12.16;nan
16120;BME280;12670;53.502;10.252;2023-05-29T02:46:00;101988.03;;;12.28;nan
16120;BME280;12670;53.502;10.252;2023-05-29T02:49:03;101984.50;;;12.27;nan
16120;BME280;12670;53.502;10.252;2023-05-29T02:52:06;101982.28;;;12.43;nan
16120;BME280;12670;53.502;10.252;2023-05-29T02:55:09;101978.25;;;12.28;nan
16120;BME280;12670;53.502;10.252;2023-05-29T02:58:11;101978.31;;;12.27;nan
16120;BME280;12670;53.502;10.252;2023-05-29T03:01:15;101984.00;;;12.13;nan
16120;BME280;12670;53.502;10.252;2023-05-29T03:04:18;101985.91;;;12.10;nan
16120;BME280;12670;53.502;10.252;2023-05-29T03:07:21;101987.56;;;11.81;nan
16120;BME280;12670;53.502;10.252;2023-05-29T03:10:24;101989.81;;;11.96;nan
16120;BME280;12670;53.502;10.252;2023-05-29T03:13:26;101980.25;;;11.89;nan
16120;BME280;12670;53.502;10.252;2023-05-29T03:16:30;101994.63;;;11.82;nan
16120;BME280;12670;53.502;10.252;2023-05-29T03:19:33;101986.72;;;11.79;nan
16120;BME280;12670;53.502;10.252;2023-05-29T03:22:36;101989.16;;;11.88;nan
16120;BME280;12670;53.502;10.252;2023-05-29T03:25:39;101980.88;;;11.99;nan
16120;BME280;12670;53.502;10.252;2023-05-29T03:28:41;101991.91;;;11.85;nan
16120;BME280;12670;53.502;10.252;2023-05-29T03:31:45;101985.31;;;11.98;nan
16120;BME280;12670;53.502;10.252;2023-05-29T03:34:48;101984.81;;;11.84;nan
16120;BME280;12670;53.502;10.252;2023-05-29T03:37:51;101975.97;;;11.84;nan
16120;BME280;12670;53.502;10.252;2023-05-29T03:40:54;101983.59;;;11.97;nan
16120;BME280;12670;53.502;10.252;2023-05-29T03:43:57;101987.78;;;11.72;nan
16120;BME280;12670;53.502;10.252;2023-05-29T03:47:01;101986.44;;;11.90;nan
16120;BME280;12670;53.502;10.252;2023-05-29T03:50:04;101984.69;;;11.89;nan
16120;BME280;12670;53.502;10.252;2023-05-29T03:53:07;102004.59;;;11.72;nan
16120;BME280;12670;53.502;10.252;2023-05-29T03:56:10;102007.31;;;11.71;nan
16120;BME280;12670;53.502;10.252;2023-05-29T03:59:13;102014.16;;;11.81;nan
16120;BME280;12670;53.502;10.252;2023-05-29T04:02:17;102005.56;;;11.70;nan
16120;BME280;12670;53.502;10.252;2023-05-29T04:05:20;102012.56;;;11.74;nan
16120;BME280;12670;53.502;10.252;2023-05-29T04:08:23;102012.06;;;11.58;nan
16120;BME280;12670;53.502;10.252;2023-05-29T04:11:27;102013.13;;;11.87;nan
16120;BME280;12670;53.502;10.252;2023-05-29T04:14:29;102018.50;;;11.84;nan
16120;BME280;12670;53.502;10.252;2023-05-29T04:17:33;102022.09;;;11.83;nan
16120;BME280;12670;53.502;10.252;2023-05-29T04:20:36;102021.81;;;11.93;nan
16120;BME280;12670;53.502;10.252;2023-05-29T04:23:39;102024.31;;;11.99;nan
16120;BME280;12670;53.502;10.252;2023-05-29T04:26:42;102031.84;;;11.82;nan
16120;BME280;12670;53.502;10.252;2023-05-29T04:29:44;102025.66;;;11.82;nan
16120;BME280;12670;53.502;10.252;2023-05-29T04:32:48;102032.03;;;11.74;nan
16120;BME280;12670;53.502;10.252;2023-05-29T04:35:53;102034.75;;;11.73;nan
16120;BME280;12670;53.502;10.252;2023-05-29T04:38:56;102038.53;;;11.98;nan
16120;BME280;12670;53.502;10.252;2023-05-29T04:41:59;102041.41;;;11.91;nan
16120;BME280;12670;53.502;10.252;2023-05-29T04:45:03;102039.75;;;12.18;nan
16120;BME280;12670;53.502;10.252;2023-05-29T04:48:08;102030.22;;;12.11;nan
16120;BME280;12670;53.502;10.252;2023-05-29T04:51:11;102035.00;;;11.98;nan
16120;BME280;12670;53.502;10.252;2023-05-29T04:54:13;102033.22;;;11.98;nan
16120;BME280;12670;53.502;10.252;2023-05-29T04:57:16;102037.31;;;11.76;nan
16120;BME280;12670;53.502;10.252;2023-05-29T05:00:19;102049.56;;;11.83;nan
16120;BME280;12670;53.502;10.252;2023-05-29T05:03:23;102054.38;;;12.03;nan
16120;BME280;12670;53.502;10.252;2023-05-29T05:06:27;102062.78;;;12.19;nan
16120;BME280;12670;53.502;10.252;2023-05-29T05:09:30;102057.41;;;11.88;nan
16120;BME280;12670;53.502;10.252;2023-05-29T05:12:33;102055.78;;;12.16;nan
16120;BME280;12670;53.502;10.252;2023-05-29T05:15:35;102051.13;;;11.56;nan
16120;BME280;12670;53.502;10.252;2023-05-29T05:18:39;102048.63;;;11.48;nan
16120;BME280;12670;53.502;10.252;2023-05-29T05:21:42;102056.63;;;11.84;nan
16120;BME280;12670;53.502;10.252;2023-05-29T05:24:45;102059.16;;;11.90;nan
16120;BME280;12670;53.502;10.252;2023-05-29T05:27:48;102053.09;;;11.84;nan
16120;BME280;12670;53.502;10.252;2023-05-29T05:30:51;102053.06;;;11.85;nan
16120;BME280;12670;53.502;10.252;2023-05-29T05:33:55;102065.81;;;12.05;nan
16120;BME280;12670;53.502;10.252;2023-05-29T05:36:58;102064.72;;;12.14;nan
16120;BME280;12670;53.502;10.252;2023-05-29T05:40:01;102057.97;;;12.33;nan
16120;BME280;12670;53.502;10.252;2023-05-29T05:43:05;102058.97;;;12.29;nan
16120;BME280;12670;53.502;10.252;2023-05-29T05:46:08;102057.84;;;12.38;nan
16120;BME280;12670;53.502;10.252;2023-05-29T05:49:12;102055.47;;;12.58;nan
16120;BME280;12670;53.502;10.252;2023-05-29T05:52:15;102063.03;;;12.72;nan
16120;BME280;12670;53.502;10.252;2023-05-29T05:55:18;102059.69;;;12.65;nan
16120;BME280;12670;53.502;10.252;2023-05-29T05:58:21;102058.38;;;12.80;nan
16120;BME280;12670;53.502;10.252;2023-05-29T06:01:24;102059.06;;;12.57;nan
16120;BME280;12670;53.502;10.252;2023-05-29T06:04:28;102061.22;;;12.74;nan
16120;BME280;12670;53.502;10.252;2023-05-29T06:07:31;102060.31;;;12.75;nan
16120;BME280;12670;53.502;10.252;2023-05-29T06:10:34;102055.91;;;12.74;nan
16120;BME280;12670;53.502;10.252;2023-05-29T06:13:37;102058.66;;;12.40;nan
16120;BME280;12670;53.502;10.252;2023-05-29T06:16:40;102064.44;;;13.13;nan
16120;BME280;12670;53.502;10.252;2023-05-29T06:19:44;102067.34;;;13.35;nan
16120;BME280;12670;53.502;10.252;2023-05-29T06:22:47;102076.31;;;13.32;nan
16120;BME280;12670;53.502;10.252;2023-05-29T06:25:51;102069.69;;;13.16;nan
16120;BME280;12670;53.502;10.252;2023-05-29T06:28:54;102073.22;;;13.17;nan
16120;BME280;12670;53.502;10.252;2023-05-29T06:31:57;102075.72;;;13.23;nan
16120;BME280;12670;53.502;10.252;2023-05-29T06:35:01;102070.97;;;13.60;nan
16120;BME280;12670;53.502;10.252;2023-05-29T06:38:04;102070.03;;;13.05;nan
16120;BME280;12670;53.502;10.252;2023-05-29T06:41:07;102064.88;;;13.29;nan
16120;BME280;12670;53.502;10.252;2023-05-29T06:44:10;102064.78;;;13.58;nan
16120;BME280;12670;53.502;10.252;2023-05-29T06:47:12;102075.69;;;13.79;nan
16120;BME280;12670;53.502;10.252;2023-05-29T06:50:17;102069.09;;;13.63;nan
16120;BME280;12670;53.502;10.252;2023-05-29T06:53:19;102069.41;;;13.80;nan
16120;BME280;12670;53.502;10.252;2023-05-29T06:56:22;102072.88;;;14.08;nan
16120;BME280;12670;53.502;10.252;2023-05-29T06:59:25;102069.06;;;14.16;nan
16120;BME280;12670;53.502;10.252;2023-05-29T07:02:28;102067.19;;;14.18;nan
16120;BME280;12670;53.502;10.252;2023-05-29T07:05:32;102077.16;;;14.12;nan
16120;BME280;12670;53.502;10.252;2023-05-29T07:08:35;102078.00;;;14.14;nan
16120;BME280;12670;53.502;10.252;2023-05-29T07:11:38;102078.66;;;14.21;nan
16120;BME280;12670;53.502;10.252;2023-05-29T07:14:40;102076.88;;;14.45;nan
16120;BME280;12670;53.502;10.252;2023-05-29T07:17:43;102085.63;;;14.50;nan
16120;BME280;12670;53.502;10.252;2023-05-29T07:20:47;102083.91;;;14.49;nan
16120;BME280;12670;53.502;10.252;2023-05-29T07:23:50;102083.31;;;14.64;nan
16120;BME280;12670;53.502;10.252;2023-05-29T07:26:53;102081.56;;;14.87;nan
16120;BME280;12670;53.502;10.252;2023-05-29T07:29:56;102078.44;;;14.99;nan
16120;BME280;12670;53.502;10.252;2023-05-29T07:32:59;102085.41;;;15.03;nan
16120;BME280;12670;53.502;10.252;2023-05-29T07:36:03;102086.16;;;15.29;nan
16120;BME280;12670;53.502;10.252;2023-05-29T07:39:07;102091.88;;;15.41;nan
16120;BME280;12670;53.502;10.252;2023-05-29T07:42:10;102096.97;;;15.47;nan
16120;BME280;12670;53.502;10.252;2023-05-29T07:45:13;102098.84;;;15.45;nan
16120;BME280;12670;53.502;10.252;2023-05-29T07:48:16;102098.00;;;15.45;nan
16120;BME280;12670;53.502;10.252;2023-05-29T07:51:21;102103.47;;;15.42;nan
16120;BME280;12670;53.502;10.252;2023-05-29T07:54:23;102104.84;;;15.74;nan
16120;BME280;12670;53.502;10.252;2023-05-29T07:57:26;102099.97;;;15.62;nan
16120;BME280;12670;53.502;10.252;2023-05-29T08:00:29;102110.19;;;15.52;nan
16120;BME280;12670;53.502;10.252;2023-05-29T08:03:32;102101.22;;;15.53;nan
16120;BME280;12670;53.502;10.252;2023-05-29T08:06:36;102104.47;;;15.83;nan
16120;BME280;12670;53.502;10.252;2023-05-29T08:09:39;102104.09;;;16.13;nan
16120;BME280;12670;53.502;10.252;2023-05-29T08:12:42;102102.88;;;16.40;nan
16120;BME280;12670;53.502;10.252;2023-05-29T08:15:45;102095.72;;;16.41;nan
16120;BME280;12670;53.502;10.252;2023-05-29T08:18:48;102090.56;;;16.16;nan
16120;BME280;12670;53.502;10.252;2023-05-29T08:21:52;102091.28;;;16.60;nan
16120;BME280;12670;53.502;10.252;2023-05-29T08:24:55;102091.00;;;16.66;nan
16120;BME280;12670;53.502;10.252;2023-05-29T08:27:57;102093.13;;;16.58;nan
16120;BME280;12670;53.502;10.252;2023-05-29T08:31:01;102099.28;;;16.81;nan
16120;BME280;12670;53.502;10.252;2023-05-29T08:34:04;102094.59;;;16.86;nan
16120;BME280;12670;53.502;10.252;2023-05-29T08:37:09;102088.16;;;16.90;nan
16120;BME280;12670;53.502;10.252;2023-05-29T08:40:12;102096.91;;;16.54;nan
16120;BME280;12670;53.502;10.252;2023-05-29T08:43:16;102079.75;;;16.78;nan
16120;BME280;12670;53.502;10.252;2023-05-29T08:46:20;102088.44;;;16.84;nan
16120;BME280;12670;53.502;10.252;2023-05-29T08:49:23;102084.53;;;16.91;nan
16120;BME280;12670;53.502;10.252;2023-05-29T08:52:29;102091.63;;;16.92;nan
16120;BME280;12670;53.502;10.252;2023-05-29T08:55:36;102099.56;;;17.50;nan
16120;BME280;12670;53.502;10.252;2023-05-29T08:58:39;102094.66;;;17.58;nan
16120;BME280;12670;53.502;10.252;2023-05-29T09:01:42;102094.75;;;17.56;nan
16120;BME280;12670;53.502;10.252;2023-05-29T09:04:45;102098.50;;;17.71;nan
16120;BME280;12670;53.502;10.252;2023-05-29T09:07:52;102100.19;;;17.55;nan
16120;BME280;12670;53.502;10.252;2023-05-29T09:10:55;102099.00;;;17.79;nan
16120;BME280;12670;53.502;10.252;2023-05-29T09:13:59;102100.44;;;18.04;nan
16120;BME280;12670;53.502;10.252;2023-05-29T09:17:04;102094.72;;;18.45;nan
16120;BME280;12670;53.502;10.252;2023-05-29T09:20:14;102092.81;;;18.47;nan
16120;BME280;12670;53.502;10.252;2023-05-29T09:23:20;102092.41;;;18.54;nan
16120;BME280;12670;53.502;10.252;2023-05-29T09:26:23;102092.66;;;18.67;nan
16120;BME280;12670;53.502;10.252;2023-05-29T09:29:26;102102.75;;;19.11;nan
16120;BME280;12670;53.502;10.252;2023-05-29T09:32:32;102106.84;;;19.34;nan
16120;BME280;12670;53.502;10.252;2023-05-29T09:35:36;102111.56;;;19.30;nan
16120;BME280;12670;53.502;10.252;2023-05-29T09:38:45;102103.97;;;19.21;nan
16120;BME280;12670;53.502;10.252;2023-05-29T09:41:53;102101.09;;;19.56;nan
16120;BME280;12670;53.502;10.252;2023-05-29T09:44:56;102107.47;;;19.70;nan
16120;BME280;12670;53.502;10.252;2023-05-29T09:48:05;102101.72;;;20.07;nan
16120;BME280;12670;53.502;10.252;2023-05-29T09:51:19;102107.34;;;20.32;nan
16120;BME280;12670;53.502;10.252;2023-05-29T09:54:27;102098.09;;;19.62;nan
16120;BME280;12670;53.502;10.252;2023-05-29T09:57:31;102093.34;;;19.81;nan
16120;BME280;12670;53.502;10.252;2023-05-29T10:00:34;102098.78;;;19.95;nan
16120;BME280;12670;53.502;10.252;2023-05-29T10:03:37;102091.97;;;20.04;nan
16120;BME280;12670;53.502;10.252;2023-05-29T10:06:43;102091.06;;;20.19;nan
16120;BME280;12670;53.502;10.252;2023-05-29T10:09:53;102089.03;;;20.82;nan
16120;BME280;12670;53.502;10.252;2023-05-29T10:12:57;102082.38;;;20.87;nan
16120;BME280;12670;53.502;10.252;2023-05-29T10:16:01;102075.44;;;20.83;nan
16120;BME280;12670;53.502;10.252;2023-05-29T10:19:06;102081.50;;;21.28;nan
16120;BME280;12670;53.502;10.252;2023-05-29T10:22:13;102070.69;;;20.87;nan
16120;BME280;12670;53.502;10.252;2023-05-29T10:25:23;102078.03;;;21.26;nan
16120;BME280;12670;53.502;10.252;2023-05-29T10:28:27;102084.53;;;21.23;nan
16120;BME280;12670;53.502;10.252;2023-05-29T10:31:33;102083.13;;;21.45;nan
16120;BME280;12670;53.502;10.252;2023-05-29T10:34:44;102075.34;;;21.40;nan
16120;BME280;12670;53.502;10.252;2023-05-29T10:37:54;102068.63;;;22.51;nan
16120;BME280;12670;53.502;10.252;2023-05-29T10:41:31;102065.50;;;22.70;nan
16120;BME280;12670;53.502;10.252;2023-05-29T10:44:39;102073.31;;;21.56;nan
16120;BME280;12670;53.502;10.252;2023-05-29T10:47:45;102067.94;;;21.96;nan
16120;BME280;12670;53.502;10.252;2023-05-29T10:50:48;102056.31;;;22.21;nan
16120;BME280;12670;53.502;10.252;2023-05-29T10:53:52;102062.84;;;22.04;nan
16120;BME280;12670;53.502;10.252;2023-05-29T10:56:57;102055.66;;;22.30;nan
16120;BME280;12670;53.502;10.252;2023-05-29T11:00:03;102052.91;;;22.69;nan
16120;BME280;12670;53.502;10.252;2023-05-29T11:03:15;102053.16;;;22.15;nan
16120;BME280;12670;53.502;10.252;2023-05-29T11:06:20;102057.97;;;23.11;nan
16120;BME280;12670;53.502;10.252;2023-05-29T11:09:29;102048.44;;;23.06;nan
16120;BME280;12670;53.502;10.252;2023-05-29T11:12:34;102045.59;;;24.26;nan
16120;BME280;12670;53.502;10.252;2023-05-29T11:15:37;102042.47;;;24.54;nan
16120;BME280;12670;53.502;10.252;2023-05-29T11:18:41;102039.03;;;23.94;nan
16120;BME280;12670;53.502;10.252;2023-05-29T11:21:54;102042.47;;;23.97;nan
16120;BME280;12670;53.502;10.252;2023-05-29T11:25:00;102042.91;;;23.55;nan
16120;BME280;12670;53.502;10.252;2023-05-29T11:28:07;102041.25;;;23.18;nan
16120;BME280;12670;53.502;10.252;2023-05-29T11:31:12;102039.59;;;24.22;nan
16120;BME280;12670;53.502;10.252;2023-05-29T11:34:16;102037.56;;;23.19;nan
16120;BME280;12670;53.502;10.252;2023-05-29T11:37:19;102039.38;;;23.90;nan
16120;BME280;12670;53.502;10.252;2023-05-29T11:40:21;102037.25;;;24.29;nan
16120;BME280;12670;53.502;10.252;2023-05-29T11:43:26;102020.91;;;23.95;nan
16120;BME280;12670;53.502;10.252;2023-05-29T11:46:29;102022.19;;;24.25;nan
16120;BME280;12670;53.502;10.252;2023-05-29T11:49:35;102024.09;;;24.80;nan
16120;BME280;12670;53.502;10.252;2023-05-29T11:52:45;102028.84;;;24.32;nan
16120;BME280;12670;53.502;10.252;2023-05-29T11:55:48;102024.88;;;23.43;nan
16120;BME280;12670;53.502;10.252;2023-05-29T11:58:52;102030.09;;;24.39;nan
16120;BME280;12670;53.502;10.252;2023-05-29T12:01:58;102026.09;;;23.39;nan
16120;BME280;12670;53.502;10.252;2023-05-29T12:05:01;102020.50;;;23.53;nan
16120;BME280;12670;53.502;10.252;2023-05-29T12:08:04;102021.38;;;23.54;nan
16120;BME280;12670;53.502;10.252;2023-05-29T12:11:08;102025.63;;;24.27;nan
16120;BME280;12670;53.502;10.252;2023-05-29T12:14:12;102024.72;;;24.04;nan
16120;BME280;12670;53.502;10.252;2023-05-29T12:17:15;102035.31;;;24.42;nan
16120;BME280;12670;53.502;10.252;2023-05-29T12:20:19;102034.50;;;25.18;nan
16120;BME280;12670;53.502;10.252;2023-05-29T12:23:22;102035.13;;;25.54;nan
16120;BME280;12670;53.502;10.252;2023-05-29T12:26:25;102037.13;;;25.73;nan
16120;BME280;12670;53.502;10.252;2023-05-29T12:29:34;102028.22;;;25.50;nan
16120;BME280;12670;53.502;10.252;2023-05-29T12:32:37;102031.94;;;25.49;nan
16120;BME280;12670;53.502;10.252;2023-05-29T12:35:46;102018.25;;;24.73;nan
16120;BME280;12670;53.502;10.252;2023-05-29T12:38:50;102020.81;;;24.19;nan
16120;BME280;12670;53.502;10.252;2023-05-29T12:41:54;102021.09;;;23.70;nan
16120;BME280;12670;53.502;10.252;2023-05-29T12:45:01;102015.28;;;24.20;nan
16120;BME280;12670;53.502;10.252;2023-05-29T12:48:06;102008.41;;;24.39;nan
16120;BME280;12670;53.502;10.252;2023-05-29T12:51:11;102010.03;;;24.64;nan
16120;BME280;12670;53.502;10.252;2023-05-29T12:54:14;102011.75;;;25.31;nan
16120;BME280;12670;53.502;10.252;2023-05-29T12:57:17;102003.28;;;25.02;nan
16120;BME280;12670;53.502;10.252;2023-05-29T13:00:23;102011.00;;;25.40;nan
16120;BME280;12670;53.502;10.252;2023-05-29T13:03:26;102006.75;;;25.47;nan
16120;BME280;12670;53.502;10.252;2023-05-29T13:06:29;102001.69;;;24.99;nan
16120;BME280;12670;53.502;10.252;2023-05-29T13:09:32;101998.72;;;25.13;nan
16120;BME280;12670;53.502;10.252;2023-05-29T13:12:35;101984.75;;;25.71;nan
16120;BME280;12670;53.502;10.252;2023-05-29T13:15:39;101977.97;;;25.76;nan
16120;BME280;12670;53.502;10.252;2023-05-29T13:18:42;101987.72;;;25.47;nan
16120;BME280;12670;53.502;10.252;2023-05-29T13:21:45;101984.84;;;24.17;nan
16120;BME280;12670;53.502;10.252;2023-05-29T13:24:50;101976.53;;;23.96;nan
16120;BME280;12670;53.502;10.252;2023-05-29T13:27:53;101981.47;;;23.56;nan
16120;BME280;12670;53.502;10.252;2023-05-29T13:30:57;101999.28;;;24.62;nan
16120;BME280;12670;53.502;10.252;2023-05-29T13:34:00;101984.94;;;24.94;nan
16120;BME280;12670;53.502;10.252;2023-05-29T13:37:03;101989.91;;;25.21;nan
16120;BME280;12670;53.502;10.252;2023-05-29T13:40:06;101988.72;;;25.14;nan
16120;BME280;12670;53.502;10.252;2023-05-29T13:43:11;101986.22;;;24.34;nan
16120;BME280;12670;53.502;10.252;2023-05-29T13:46:15;101994.28;;;25.01;nan
16120;BME280;12670;53.502;10.252;2023-05-29T13:49:18;101980.03;;;24.77;nan
16120;BME280;12670;53.502;10.252;2023-05-29T13:52:21;101984.38;;;24.57;nan
16120;BME280;12670;53.502;10.252;2023-05-29T13:55:24;101982.53;;;24.46;nan
16120;BME280;12670;53.502;10.252;2023-05-29T13:58:28;101976.34;;;24.10;nan
16120;BME280;12670;53.502;10.252;2023-05-29T14:01:32;101977.97;;;24.46;nan
16120;BME280;12670;53.502;10.252;2023-05-29T14:04:35;101966.53;;;23.50;nan
16120;BME280;12670;53.502;10.252;2023-05-29T14:07:40;101970.63;;;23.91;nan
16120;BME280;12670;53.502;10.252;2023-05-29T14:10:42;101963.16;;;24.51;nan
16120;BME280;12670;53.502;10.252;2023-05-29T14:13:45;101962.06;;;24.53;nan
16120;BME280;12670;53.502;10.252;2023-05-29T14:16:49;101967.25;;;24.45;nan
16120;BME280;12670;53.502;10.252;2023-05-29T14:19:53;101959.31;;;24.08;nan
16120;BME280;12670;53.502;10.252;2023-05-29T14:22:56;101960.88;;;23.77;nan
16120;BME280;12670;53.502;10.252;2023-05-29T14:25:59;101964.78;;;24.42;nan
16120;BME280;12670;53.502;10.252;2023-05-29T14:29:02;101952.03;;;24.31;nan
16120;BME280;12670;53.502;10.252;2023-05-29T14:32:15;101953.56;;;24.35;nan
16120;BME280;12670;53.502;10.252;2023-05-29T14:35:18;101947.47;;;24.32;nan
16120;BME280;12670;53.502;10.252;2023-05-29T14:38:21;101948.81;;;23.81;nan
16120;BME280;12670;53.502;10.252;2023-05-29T14:41:23;101960.66;;;23.21;nan
16120;BME280;12670;53.502;10.252;2023-05-29T14:44:27;101956.06;;;22.74;nan
16120;BME280;12670;53.502;10.252;2023-05-29T14:47:31;101955.00;;;22.76;nan
16120;BME280;12670;53.502;10.252;2023-05-29T14:50:34;101958.03;;;22.72;nan
16120;BME280;12670;53.502;10.252;2023-05-29T14:53:37;101956.28;;;22.34;nan
16120;BME280;12670;53.502;10.252;2023-05-29T14:56:39;101955.88;;;22.15;nan
16120;BME280;12670;53.502;10.252;2023-05-29T14:59:42;101943.19;;;21.90;nan
16120;BME280;12670;53.502;10.252;2023-05-29T15:02:46;101933.91;;;22.06;nan
16120;BME280;12670;53.502;10.252;2023-05-29T15:05:49;101948.41;;;22.05;nan
16120;BME280;12670;53.502;10.252;2023-05-29T15:08:52;101957.50;;;22.17;nan
16120;BME280;12670;53.502;10.252;2023-05-29T15:11:57;101945.56;;;22.07;nan
16120;BME280;12670;53.502;10.252;2023-05-29T15:15:02;101946.34;;;21.83;nan
16120;BME280;12670;53.502;10.252;2023-05-29T15:18:06;101938.88;;;21.87;nan
16120;BME280;12670;53.502;10.252;2023-05-29T15:21:09;101939.72;;;21.75;nan
16120;BME280;12670;53.502;10.252;2023-05-29T15:24:12;101943.41;;;21.61;nan
16120;BME280;12670;53.502;10.252;2023-05-29T15:27:15;101933.81;;;21.70;nan
16120;BME280;12670;53.502;10.252;2023-05-29T15:30:19;101939.28;;;21.55;nan
16120;BME280;12670;53.502;10.252;2023-05-29T15:33:23;101935.47;;;21.45;nan
16120;BME280;12670;53.502;10.252;2023-05-29T15:36:26;101939.50;;;21.52;nan
16120;BME280;12670;53.502;10.252;2023-05-29T15:39:30;101936.44;;;21.44;nan
16120;BME280;12670;53.502;10.252;2023-05-29T15:42:33;101942.28;;;21.38;nan
16120;BME280;12670;53.502;10.252;2023-05-29T15:45:36;101949.41;;;21.39;nan
16120;BME280;12670;53.502;10.252;2023-05-29T15:48:40;101946.53;;;21.28;nan
16120;BME280;12670;53.502;10.252;2023-05-29T15:51:43;101945.19;;;21.08;nan
16120;BME280;12670;53.502;10.252;2023-05-29T15:54:46;101944.88;;;21.40;nan
16120;BME280;12670;53.502;10.252;2023-05-29T15:57:49;101945.19;;;21.08;nan
16120;BME280;12670;53.502;10.252;2023-05-29T16:00:52;101945.44;;;21.18;nan
16120;BME280;12670;53.502;10.252;2023-05-29T16:03:56;101940.91;;;21.18;nan
16120;BME280;12670;53.502;10.252;2023-05-29T16:06:59;101948.63;;;21.10;nan
16120;BME280;12670;53.502;10.252;2023-05-29T16:10:02;101943.56;;;20.79;nan
16120;BME280;12670;53.502;10.252;2023-05-29T16:13:05;101946.00;;;20.96;nan